Time;durP1;ratioP1;P1;durP2;ratioP2;P2;SDS_P1;SDS_P2;PMS_P1;PMS_P2;Temp;Humidity;BMP_temperature;BMP_pressure;BME280_temperature;BME280_humidity;BME280_pressure;Samples;Min_cycle;Max_cycle;Signal;HPM_P1;HPM_P2
2022/03/22 00:00:55;;;;;;;52.78;21.08;;;2.40;44.10;;;;;;5033908;28;20014;-83
2022/03/22 00:03:23;;;;;;;59.27;23.97;;;2.30;44.40;;;;;;5022992;28;20050;-84
2022/03/22 00:05:49;;;;;;;54.73;21.43;;;2.20;44.70;;;;;;5028009;28;20029;-83
2022/03/22 00:08:15;;;;;;;59.55;22.85;;;2.20;45.00;;;;;;5022420;28;20037;-84
2022/03/22 00:10:40;;;;;;;54.40;21.50;;;2.10;45.20;;;;;;5043793;28;20059;-83
2022/03/22 00:13:07;;;;;;;49.63;20.00;;;2.00;45.30;;;;;;5029454;28;20036;-82
2022/03/22 00:15:34;;;;;;;52.67;21.03;;;1.90;45.40;;;;;;5048926;28;20025;-83
2022/03/22 00:18:00;;;;;;;54.60;21.20;;;1.90;45.60;;;;;;5025347;28;20052;-83
2022/03/22 00:20:27;;;;;;;56.63;22.23;;;1.80;45.80;;;;;;5023594;28;20481;-83
2022/03/22 00:22:54;;;;;;;50.57;21.63;;;1.80;46.00;;;;;;5020853;28;20048;-84
2022/03/22 00:25:20;;;;;;;57.77;23.17;;;1.70;46.20;;;;;;5028420;28;20037;-84
2022/03/22 00:27:53;;;;;;;68.50;25.30;;;1.70;46.40;;;;;;5024610;28;20033;-84
2022/03/22 00:30:24;;;;;;;74.27;25.43;;;1.60;46.60;;;;;;5029332;28;20025;-84
2022/03/22 00:32:54;;;;;;;70.87;24.87;;;1.60;46.70;;;;;;5022402;28;20093;-84
2022/03/22 00:35:39;;;;;;;66.80;24.07;;;1.50;46.70;;;;;;5023753;28;20494;-84
2022/03/22 00:38:08;;;;;;;64.60;24.00;;;1.40;47.20;;;;;;5022823;28;20379;-83
2022/03/22 00:40:34;;;;;;;62.57;24.33;;;1.40;47.00;;;;;;5044771;28;20021;-83
2022/03/22 00:42:59;;;;;;;;;;;1.30;47.20;;;;;;5021441;28;20029;-83
2022/03/22 00:45:28;;;;;;;65.33;25.23;;;1.30;47.20;;;;;;5021769;28;19917;-84
2022/03/22 00:47:55;;;;;;;63.13;22.27;;;1.30;46.80;;;;;;5040323;28;20102;-84
2022/03/22 00:50:27;;;;;;;48.97;19.33;;;1.30;47.10;;;;;;5024868;28;20493;-84
2022/03/22 00:52:53;;;;;;;50.37;20.37;;;1.20;47.30;;;;;;5029814;28;20123;-84
2022/03/22 00:55:23;;;;;;;48.07;20.33;;;1.10;47.40;;;;;;5024100;28;20048;-84
2022/03/22 00:57:50;;;;;;;54.87;22.53;;;1.10;47.60;;;;;;5029539;28;20025;-83
2022/03/22 01:00:17;;;;;;;54.97;22.23;;;1.10;47.80;;;;;;5037842;28;20030;-83
2022/03/22 01:02:50;;;;;;;55.40;21.87;;;1.00;47.90;;;;;;5019954;28;20144;-82
2022/03/22 01:05:19;;;;;;;55.60;22.43;;;1.00;48.20;;;;;;5028315;28;20033;-83
2022/03/22 01:07:50;;;;;;;60.80;22.13;;;0.90;48.10;;;;;;5018382;28;20512;-82
2022/03/22 01:10:17;;;;;;;53.00;21.90;;;0.80;48.30;;;;;;5025817;28;20495;-82
2022/03/22 01:12:44;;;;;;;50.00;22.33;;;0.80;48.40;;;;;;5023718;28;20044;-82
2022/03/22 01:15:15;;;;;;;49.17;20.53;;;0.80;48.60;;;;;;5030184;28;20029;-84
2022/03/22 01:17:41;;;;;;;57.87;22.13;;;0.70;48.80;;;;;;5026649;28;20071;-84
2022/03/22 01:20:10;;;;;;;59.97;23.97;;;0.70;49.10;;;;;;5028928;28;20067;-83
2022/03/22 01:22:39;;;;;;;65.93;22.93;;;0.70;49.10;;;;;;5025997;28;20133;-84
2022/03/22 01:25:13;;;;;;;58.70;23.70;;;0.70;49.30;;;;;;5020904;28;20033;-83
2022/03/22 01:27:39;;;;;;;53.93;24.17;;;0.60;49.40;;;;;;5021722;28;20415;-84
2022/03/22 01:30:05;;;;;;;;;;;0.60;49.50;;;;;;5022863;28;20021;-83
2022/03/22 01:32:31;;;;;;;55.33;21.20;;;0.50;49.50;;;;;;5025066;28;20276;-83
2022/03/22 01:34:57;;;;;;;53.90;22.95;;;0.40;49.10;;;;;;5031470;28;20112;-83
2022/03/22 01:37:22;;;;;;;58.28;21.70;;;0.40;49.30;;;;;;5034996;28;20108;-84
2022/03/22 01:39:48;;;;;;;54.97;23.02;;;0.30;49.50;;;;;;5035430;28;20738;-83
2022/03/22 01:42:13;;;;;;;60.65;24.00;;;0.30;49.60;;;;;;5035015;28;20040;-83
2022/03/22 01:44:39;;;;;;;59.03;23.35;;;0.20;49.80;;;;;;5035150;28;20017;-83
2022/03/22 01:47:05;;;;;;;61.13;23.17;;;0.20;49.90;;;;;;5035103;28;20055;-83
2022/03/22 01:49:31;;;;;;;;;;;0.20;50.00;;;;;;5035513;28;20489;-83
2022/03/22 01:51:56;;;;;;;49.57;21.00;;;0.10;50.10;;;;;;5035382;28;19999;-83
2022/03/22 01:54:22;;;;;;;57.33;22.65;;;0.10;49.70;;;;;;5035119;28;20053;-84
2022/03/22 01:56:49;;;;;;;52.63;22.88;;;0.10;50.00;;;;;;5032986;28;20067;-82
2022/03/22 01:59:15;;;;;;;59.03;23.00;;;0.10;50.20;;;;;;5034369;28;20021;-83
2022/03/22 02:07:13;;;;;;;44.85;17.83;;;0.00;50.50;;;;;;5052996;28;20040;-83
2022/03/22 02:09:38;;;;;;;68.70;23.23;;;0.00;50.50;;;;;;5036415;28;20039;-83
2022/03/22 02:12:04;;;;;;;61.75;23.40;;;0.00;50.60;;;;;;5036116;28;20025;-83
2022/03/22 02:14:30;;;;;;;;;;;-3276.70;50.80;;;;;;5035801;28;20035;-83
2022/03/22 02:16:55;;;;;;;54.40;21.87;;;-3276.70;50.80;;;;;;5034960;28;19988;-83
2022/03/22 02:19:21;;;;;;;51.65;22.33;;;-3276.70;50.50;;;;;;5035500;28;20009;-83
2022/03/22 02:21:55;;;;;;;55.25;20.55;;;-3276.70;50.70;;;;;;5053264;28;20023;-83
2022/03/22 02:24:20;;;;;;;58.63;22.00;;;-3276.70;50.90;;;;;;5035240;28;20418;-83
2022/03/22 02:26:46;;;;;;;47.35;20.17;;;-3276.60;51.00;;;;;;5036192;28;20025;-83
2022/03/22 02:29:11;;;;;;;53.00;20.83;;;-3276.50;51.10;;;;;;5036479;28;20025;-83
2022/03/22 02:31:38;;;;;;;49.03;19.17;;;-3276.50;51.20;;;;;;5036131;28;20100;-83
2022/03/22 02:34:04;;;;;;;46.10;19.67;;;-3276.50;51.20;;;;;;5035477;28;20021;-83
2022/03/22 02:36:29;;;;;;;45.03;19.33;;;-3276.50;51.30;;;;;;5035570;28;20052;-82
2022/03/22 02:38:55;;;;;;;46.30;18.83;;;-3276.40;51.40;;;;;;5035354;28;20450;-81
2022/03/22 02:41:23;;;;;;;49.70;19.40;;;-3276.40;51.50;;;;;;5051500;28;20048;-83
2022/03/22 02:43:50;;;;;;;45.40;19.00;;;-3276.40;51.50;;;;;;5035049;28;20031;-83
2022/03/22 02:46:16;;;;;;;44.07;17.60;;;-3276.30;51.50;;;;;;5055192;28;20029;-83
2022/03/22 02:48:42;;;;;;;45.80;18.38;;;-3276.30;51.60;;;;;;5039311;28;20064;-82
2022/03/22 02:51:08;;;;;;;;;;;-3276.30;51.70;;;;;;5039622;28;20534;-83
2022/03/22 02:53:34;;;;;;;43.47;17.07;;;-3276.30;51.80;;;;;;5039442;28;19908;-83
2022/03/22 02:55:59;;;;;;;49.03;17.10;;;-3276.30;51.40;;;;;;5038198;28;20090;-83
2022/03/22 02:58:25;;;;;;;41.22;18.20;;;-3276.20;51.50;;;;;;5038933;28;20017;-83
2022/03/22 03:00:51;;;;;;;35.40;17.13;;;-3276.20;51.60;;;;;;5038543;28;20381;-83
2022/03/22 03:03:21;;;;;;;46.78;18.63;;;-3276.20;51.70;;;;;;5037887;28;20025;-83
2022/03/22 03:05:47;;;;;;;38.07;17.37;;;-3276.20;51.80;;;;;;5056239;28;20100;-83
2022/03/22 03:08:13;;;;;;;42.50;17.57;;;-3276.20;51.90;;;;;;5056253;28;20043;-83
2022/03/22 03:10:39;;;;;;;42.55;17.92;;;-3276.20;52.00;;;;;;5055822;28;20021;-83
2022/03/22 03:13:05;;;;;;;49.22;20.20;;;-3276.20;52.10;;;;;;5056798;28;20025;-83
2022/03/22 03:15:30;;;;;;;;;;;-3276.10;52.20;;;;;;5037874;28;20484;-83
2022/03/22 03:17:57;;;;;;;40.80;18.23;;;-3276.10;52.20;;;;;;5056591;28;19909;-83
2022/03/22 03:20:23;;;;;;;47.87;19.53;;;-3276.10;51.80;;;;;;5022392;28;20033;-83
2022/03/22 03:22:49;;;;;;;64.72;21.98;;;-3276.10;52.00;;;;;;5038123;28;20060;-82
2022/03/22 03:25:15;;;;;;;52.97;22.25;;;-3276.10;52.30;;;;;;5038563;28;20041;-83
2022/03/22 03:27:40;;;;;;;;;;;-3276.10;52.40;;;;;;5037611;28;20472;-83
2022/03/22 03:30:07;;;;;;;74.27;24.50;;;-3276.10;52.50;;;;;;5056921;28;19912;-83
2022/03/22 03:32:33;;;;;;;65.67;22.67;;;-3276.10;52.10;;;;;;5056041;28;20041;-82
2022/03/22 03:34:58;;;;;;;58.70;22.85;;;-3276.10;52.40;;;;;;5037706;28;20366;-82
2022/03/22 03:37:25;;;;;;;53.95;22.08;;;-3276.00;52.60;;;;;;5033747;28;20029;-83
2022/03/22 03:39:50;;;;;;;;;;;-3276.00;52.80;;;;;;5038231;28;20028;-83
2022/03/22 03:42:16;;;;;;;64.70;23.83;;;-3276.00;52.80;;;;;;5037431;28;19912;-83
2022/03/22 03:47:26;;;;;;;69.87;26.67;;;-3275.90;52.70;;;;;;5055865;28;20094;-83
2022/03/22 03:50:00;;;;;;;63.90;26.63;;;-3275.90;52.90;;;;;;5036757;28;20428;-83
2022/03/22 03:52:31;;;;;;;74.20;28.37;;;-3275.80;53.30;;;;;;5035466;28;20033;-82
2022/03/22 03:54:58;;;;;;;70.00;26.77;;;-3275.70;53.40;;;;;;5031665;28;20033;-82
2022/03/22 03:57:25;;;;;;;71.17;28.27;;;-3275.70;53.60;;;;;;5036704;28;20447;-83
2022/03/22 03:59:51;;;;;;;62.67;27.67;;;-3275.70;53.80;;;;;;5036572;28;20044;-83
2022/03/22 04:02:17;;;;;;;65.40;27.10;;;-3275.70;53.90;;;;;;5037427;28;20028;-83
2022/03/22 04:04:43;;;;;;;;;;;-3275.70;54.10;;;;;;5033651;28;20052;-83
2022/03/22 04:07:11;;;;;;;59.27;24.50;;;-3275.70;54.10;;;;;;5036480;28;20385;-83
2022/03/22 04:09:38;;;;;;;66.70;25.60;;;-3275.70;53.70;;;;;;5036355;28;20029;-83
2022/03/22 04:12:05;;;;;;;68.47;26.70;;;-3275.60;53.80;;;;;;5036683;28;20029;-83
2022/03/22 04:14:31;;;;;;;59.00;26.53;;;-3275.60;54.00;;;;;;5036254;28;20033;-83
2022/03/22 04:16:56;;;;;;;62.97;25.60;;;-3275.50;54.20;;;;;;5036110;28;20477;-83
2022/03/22 04:19:23;;;;;;;63.95;25.77;;;-3275.50;54.30;;;;;;5036781;28;20075;-83
2022/03/22 04:21:48;;;;;;;59.80;24.43;;;-3275.50;54.30;;;;;;5035576;28;20017;-83
2022/03/22 04:24:14;;;;;;;68.72;25.38;;;-3275.40;54.40;;;;;;5036857;28;20021;-82
2022/03/22 04:26:42;;;;;;;59.45;22.55;;;-3275.50;54.50;;;;;;5020868;28;20033;-83
2022/03/22 04:34:42;;;;;;;62.20;23.57;;;-3275.30;54.70;;;;;;5054433;28;20325;-82
2022/03/22 04:37:12;;;;;;;66.23;24.67;;;-3275.30;54.80;;;;;;5036173;28;20071;-82
2022/03/22 04:39:39;;;;;;;52.23;25.33;;;-3275.30;55.00;;;;;;5035196;28;20033;-82
2022/03/22 04:42:06;;;;;;;58.43;24.03;;;-3275.30;55.10;;;;;;5054094;28;20039;-82
2022/03/22 04:44:32;;;;;;;56.90;24.20;;;-3275.30;55.20;;;;;;5035742;28;20071;-82
2022/03/22 04:46:58;;;;;;;63.95;24.52;;;-3275.30;55.30;;;;;;5035760;28;20024;-82
2022/03/22 04:49:24;;;;;;;;;;;-3275.30;55.40;;;;;;5036172;28;20025;-83
2022/03/22 04:57:18;;;;;;;60.07;22.57;;;-3275.20;55.00;;;;;;5054222;28;20394;-82
2022/03/22 04:59:44;;;;;;;65.57;23.40;;;-3275.20;55.10;;;;;;5053204;28;20021;-82
2022/03/22 05:02:10;;;;;;;54.78;22.77;;;-3275.20;55.30;;;;;;5036669;28;20436;-82
2022/03/22 05:04:36;;;;;;;54.90;22.37;;;-3275.10;55.30;;;;;;5036276;28;20410;-81
2022/03/22 05:07:02;;;;;;;62.15;22.83;;;-3275.20;55.40;;;;;;5036373;28;20025;-88
2022/03/22 05:09:30;;;;;;;52.58;22.70;;;-3275.20;55.50;;;;;;5037011;28;20040;-86
2022/03/22 05:12:00;;;;;;;63.50;23.03;;;-3275.20;55.60;;;;;;5055120;28;20032;-85
2022/03/22 05:14:26;;;;;;;57.90;22.23;;;-3275.20;55.70;;;;;;5036359;28;20055;-85
2022/03/22 05:16:52;;;;;;;54.23;22.10;;;-3275.30;55.70;;;;;;5034980;28;20032;-85
2022/03/22 05:19:18;;;;;;;;;;;-3275.30;55.70;;;;;;5036431;28;20033;-85
2022/03/22 05:21:44;;;;;;;61.23;22.43;;;-3275.40;55.70;;;;;;5035017;28;19922;-84
2022/03/22 05:24:10;;;;;;;54.95;21.60;;;-3275.50;55.20;;;;;;5033382;28;20052;-84
2022/03/22 05:26:35;;;;;;;64.82;23.52;;;-3275.50;55.40;;;;;;5036179;28;20103;-85
2022/03/22 05:29:04;;;;;;;68.20;24.25;;;-3275.50;55.40;;;;;;5036016;28;20095;-85
2022/03/22 05:31:31;;;;;;;60.73;23.77;;;-3275.60;55.50;;;;;;5035532;28;20025;-85
2022/03/22 05:33:56;;;;;;;53.67;23.57;;;-3275.70;55.50;;;;;;5035449;28;20037;-85
2022/03/22 05:36:23;;;;;;;61.15;22.92;;;-3275.70;55.50;;;;;;5035619;28;20041;-85
2022/03/22 05:38:48;;;;;;;57.73;22.70;;;-3275.80;55.60;;;;;;5035611;28;20025;-83
2022/03/22 05:41:14;;;;;;;56.88;22.00;;;-3275.90;55.60;;;;;;5035561;28;20028;-85
2022/03/22 05:43:41;;;;;;;55.03;22.45;;;-3276.00;55.60;;;;;;5053174;28;20055;-84
2022/03/22 05:46:08;;;;;;;69.47;24.83;;;-3276.10;55.60;;;;;;5035694;28;20021;-84
2022/03/22 05:48:34;;;;;;;65.77;23.77;;;-3276.20;55.60;;;;;;5035466;28;20021;-84
2022/03/22 05:51:00;;;;;;;59.90;23.98;;;-3276.30;55.70;;;;;;5034385;28;20028;-84
2022/03/22 05:53:25;;;;;;;;;;;-3276.40;55.60;;;;;;5035824;28;20075;-85
2022/03/22 05:55:51;;;;;;;59.73;24.77;;;-3276.50;55.50;;;;;;5034399;28;20358;-84
2022/03/22 05:58:17;;;;;;;65.00;27.38;;;-3276.60;55.10;;;;;;5035722;28;20402;-84
2022/03/22 06:00:42;;;;;;;67.18;27.60;;;-3276.70;55.30;;;;;;5032592;28;20511;-84
2022/03/22 06:03:08;;;;;;;68.15;26.95;;;0.00;55.30;;;;;;5035457;28;20017;-85
2022/03/22 06:05:34;;;;;;;69.03;28.02;;;0.00;55.40;;;;;;5035543;28;20028;-84
2022/03/22 06:08:00;;;;;;;77.43;29.75;;;0.10;55.40;;;;;;5035856;28;20045;-84
2022/03/22 06:10:27;;;;;;;69.15;27.83;;;0.30;55.50;;;;;;5035691;28;20052;-84
2022/03/22 06:12:55;;;;;;;79.40;31.27;;;0.30;55.60;;;;;;5034770;28;20032;-84
2022/03/22 06:15:26;;;;;;;79.03;30.93;;;0.40;55.60;;;;;;5035326;28;20378;-83
2022/03/22 06:17:56;;;;;;;76.00;29.97;;;0.60;55.70;;;;;;5052360;28;20025;-84
2022/03/22 06:20:27;;;;;;;72.13;28.03;;;0.70;55.70;;;;;;5037365;28;20052;-83
2022/03/22 06:22:54;;;;;;;69.10;30.43;;;0.80;55.60;;;;;;5040017;28;20021;-83
2022/03/22 06:25:20;;;;;;;74.57;32.50;;;0.90;55.40;;;;;;5040345;28;20037;-84
2022/03/22 06:27:48;;;;;;;77.45;33.50;;;1.10;55.30;;;;;;5056419;28;20024;-83
2022/03/22 06:30:15;;;;;;;75.93;29.00;;;1.20;55.10;;;;;;5021617;28;20029;-83
2022/03/22 06:32:45;;;;;;;67.70;28.93;;;1.40;55.00;;;;;;5038683;28;20510;-84
2022/03/22 06:35:12;;;;;;;81.63;30.23;;;1.60;55.00;;;;;;5040056;28;20512;-84
2022/03/22 06:37:38;;;;;;;64.27;29.00;;;1.80;54.80;;;;;;5041538;28;20036;-83
2022/03/22 06:40:08;;;;;;;70.33;29.07;;;2.00;54.80;;;;;;5038801;28;20037;-82
2022/03/22 06:42:35;;;;;;;65.97;28.73;;;2.30;54.90;;;;;;5038717;28;20036;-83
2022/03/22 06:45:03;;;;;;;69.87;27.47;;;2.50;54.70;;;;;;5037336;28;20017;-83
2022/03/22 06:47:29;;;;;;;70.53;29.73;;;2.70;54.60;;;;;;5038094;28;20017;-82
2022/03/22 06:49:55;;;;;;;68.27;28.23;;;2.90;54.60;;;;;;5038404;28;20027;-82
2022/03/22 06:52:21;;;;;;;76.55;30.25;;;3.10;54.60;;;;;;5038785;28;20024;-86
2022/03/22 06:54:49;;;;;;;66.88;27.00;;;3.30;54.40;;;;;;5040948;28;20043;-86
2022/03/22 06:57:15;;;;;;;60.97;25.47;;;3.60;54.40;;;;;;5039521;28;20017;-87
2022/03/22 06:59:41;;;;;;;51.60;24.38;;;3.80;54.00;;;;;;5057451;28;20013;-87
2022/03/22 07:02:07;;;;;;;42.05;20.27;;;4.00;53.50;;;;;;5038769;28;20033;-87
2022/03/22 07:04:33;;;;;;;56.27;20.93;;;4.30;52.90;;;;;;5039450;28;20005;-87
2022/03/22 07:06:58;;;;;;;54.75;20.40;;;4.50;52.00;;;;;;5039255;28;20031;-87
2022/03/22 07:09:27;;;;;;;47.03;20.77;;;4.80;51.30;;;;;;5038379;28;20385;-87
2022/03/22 07:11:55;;;;;;;49.73;20.90;;;5.10;50.50;;;;;;5039215;28;20017;-86
2022/03/22 07:14:22;;;;;;;40.90;20.30;;;5.40;49.90;;;;;;5039822;28;20029;-87
2022/03/22 07:16:48;;;;;;;47.87;20.57;;;5.70;49.40;;;;;;5039529;28;20017;-87
2022/03/22 07:19:19;;;;;;;40.80;15.50;;;5.90;48.80;;;;;;5039477;28;20036;-87
2022/03/22 07:21:45;;;;;;;43.17;19.07;;;6.20;48.30;;;;;;5039594;28;20393;-86
2022/03/22 07:24:12;;;;;;;44.75;18.48;;;6.40;47.70;;;;;;5039403;28;20021;-86
2022/03/22 07:26:40;;;;;;;52.53;22.50;;;6.60;47.20;;;;;;5040746;28;20029;-89
2022/03/22 07:29:06;;;;;;;47.90;21.07;;;6.80;46.70;;;;;;5038127;28;20024;-83
2022/03/22 07:31:37;;;;;;;;;;;6.90;46.20;;;;;;5020841;28;20021;-83
2022/03/22 07:34:05;;;;;;;36.67;16.33;;;7.20;46.10;;;;;;5037249;28;19909;-83
2022/03/22 07:36:30;;;;;;;34.57;17.57;;;7.40;44.70;;;;;;5036855;28;20047;-85
2022/03/22 07:38:56;;;;;;;39.00;19.10;;;7.50;44.30;;;;;;5036678;28;20017;-83
2022/03/22 07:41:22;;;;;;;41.97;18.25;;;7.70;43.40;;;;;;5036994;28;20025;-83
2022/03/22 07:43:47;;;;;;;43.50;19.73;;;7.90;43.00;;;;;;5036891;28;20090;-83
2022/03/22 07:46:13;;;;;;;43.58;17.63;;;8.00;42.50;;;;;;5036340;28;20025;-82
2022/03/22 07:48:39;;;;;;;43.50;20.38;;;8.20;42.20;;;;;;5036340;28;20440;-81
2022/03/22 07:53:48;;;;;;;40.17;19.57;;;8.30;41.70;;;;;;5053958;28;20109;-83
2022/03/22 07:56:14;;;;;;;38.35;19.00;;;8.50;41.30;;;;;;5036015;28;20116;-83
2022/03/22 07:58:39;;;;;;;40.40;18.90;;;8.60;41.00;;;;;;5053976;28;20080;-83
2022/03/22 08:01:05;;;;;;;40.60;18.67;;;8.80;40.70;;;;;;5020716;28;20395;-84
2022/03/22 08:03:31;;;;;;;40.45;18.70;;;8.90;40.20;;;;;;5036652;28;20024;-83
2022/03/22 08:05:56;;;;;;;36.53;19.10;;;9.00;40.00;;;;;;5036514;28;20532;-83
2022/03/22 08:08:22;;;;;;;44.53;19.48;;;9.10;39.70;;;;;;5036872;28;20029;-83
2022/03/22 08:10:48;;;;;;;38.35;19.80;;;9.20;39.50;;;;;;5036385;28;20025;-83
2022/03/22 08:13:14;;;;;;;45.65;20.73;;;9.30;39.10;;;;;;5036479;28;20029;-83
2022/03/22 08:15:40;;;;;;;40.15;18.92;;;9.40;39.00;;;;;;5036391;28;20028;-83
2022/03/22 08:18:06;;;;;;;;;;;9.50;38.90;;;;;;5036426;28;20461;-83
2022/03/22 08:20:32;;;;;;;41.37;17.67;;;9.60;38.80;;;;;;5036180;28;19917;-82
2022/03/22 08:22:59;;;;;;;36.03;17.50;;;9.80;38.30;;;;;;5035852;28;20025;-82
2022/03/22 08:25:37;;;;;;;46.93;18.30;;;9.90;37.70;;;;;;5054942;28;20035;-85
2022/03/22 08:28:04;;;;;;;39.43;18.90;;;9.90;37.70;;;;;;5038824;28;20485;-84
2022/03/22 08:30:30;;;;;;;38.87;16.70;;;10.10;37.70;;;;;;5036513;28;20017;-83
2022/03/22 08:32:58;;;;;;;;;;;10.20;37.50;;;;;;5036624;28;20048;-83
2022/03/22 08:35:25;;;;;;;34.67;17.23;;;10.30;37.20;;;;;;5035179;28;20007;-82
2022/03/22 08:38:04;;;;;;;34.67;16.17;;;10.40;36.80;;;;;;5162761;27;20790;-81
2022/03/22 08:40:30;;;;;;;34.60;17.85;;;10.50;36.60;;;;;;5144031;27;20019;-83
2022/03/22 08:42:57;;;;;;;36.78;16.10;;;10.50;36.60;;;;;;5142918;27;20358;-83
2022/03/22 08:45:25;;;;;;;31.25;13.75;;;10.60;36.60;;;;;;5145601;27;20045;-84
2022/03/22 08:47:52;;;;;;;39.55;18.17;;;10.80;36.20;;;;;;5139314;27;20030;-83
2022/03/22 08:50:21;;;;;;;44.80;18.33;;;10.80;35.80;;;;;;5146777;27;20068;-83
2022/03/22 08:52:47;;;;;;;39.33;18.63;;;10.90;35.70;;;;;;5137875;27;20023;-83
2022/03/22 08:55:17;;;;;;;44.67;18.73;;;10.90;35.50;;;;;;5159609;27;20502;-83
2022/03/22 08:57:44;;;;;;;37.15;18.42;;;11.10;35.20;;;;;;5142333;27;20055;-83
2022/03/22 09:00:12;;;;;;;37.03;17.35;;;11.10;35.20;;;;;;5141099;27;20010;-82
2022/03/22 09:02:42;;;;;;;41.88;19.25;;;11.20;35.20;;;;;;5141306;27;20090;-83
2022/03/22 09:07:56;;;;;;;43.05;18.55;;;11.30;34.90;;;;;;5159715;27;20073;-82
2022/03/22 09:10:22;;;;;;;36.50;17.58;;;11.40;34.80;;;;;;5141985;27;20023;-81
2022/03/22 09:12:48;;;;;;;40.88;17.38;;;11.50;34.80;;;;;;5141137;27;20030;-84
2022/03/22 09:15:21;;;;;;;37.45;19.30;;;11.50;34.80;;;;;;5134239;27;20019;-83
2022/03/22 09:17:47;;;;;;;43.13;18.92;;;11.70;34.80;;;;;;5141841;27;20022;-84
2022/03/22 09:20:13;;;;;;;38.78;16.67;;;11.80;34.50;;;;;;5139152;27;20475;-83
2022/03/22 09:22:45;;;;;;;42.80;17.63;;;11.90;34.30;;;;;;5157980;27;20088;-83
2022/03/22 09:25:11;;;;;;;34.92;14.65;;;11.90;34.20;;;;;;5142333;27;20019;-84
2022/03/22 09:27:38;;;;;;;45.45;17.98;;;12.10;34.00;;;;;;5162202;27;20031;-84
2022/03/22 09:30:05;;;;;;;41.58;17.25;;;12.10;33.90;;;;;;5140271;27;20046;-83
2022/03/22 09:32:30;;;;;;;35.40;17.52;;;12.30;34.00;;;;;;5164272;27;20026;-83
2022/03/22 09:34:58;;;;;;;;;;;12.30;33.90;;;;;;5141964;27;20122;-83
2022/03/22 09:40:57;;;;;;;45.13;19.13;;;12.60;33.60;;;;;;5156501;27;20162;-84
2022/03/22 09:43:23;;;;;;;33.83;17.52;;;12.80;33.30;;;;;;5143556;27;20464;-84
2022/03/22 09:45:50;;;;;;;;;;;12.80;33.30;;;;;;5160405;27;20019;-84
2022/03/22 09:48:17;;;;;;;37.25;17.23;;;12.90;33.30;;;;;;5137636;27;20163;-87
2022/03/22 09:53:27;;;;;;;41.80;18.23;;;13.20;33.20;;;;;;5148623;27;20100;-88
2022/03/22 09:55:52;;;;;;;;;;;13.30;32.90;;;;;;5133303;27;20031;-86
2022/03/22 09:58:18;;;;;;;37.25;15.27;;;13.40;32.90;;;;;;5126730;27;20412;-88
2022/03/22 10:00:44;;;;;;;;;;;13.60;32.80;;;;;;5128861;27;20026;-88
2022/03/22 10:03:20;;;;;;;41.83;18.83;;;13.70;32.80;;;;;;5133222;27;19907;-87
2022/03/22 10:06:03;;;;;;;37.50;17.52;;;13.80;32.40;;;;;;5144612;27;20015;-89
2022/03/22 10:08:29;;;;;;;38.88;18.42;;;13.90;32.10;;;;;;5110127;27;20035;-88
2022/03/22 10:10:56;;;;;;;;;;;14.00;32.00;;;;;;5130650;27;20035;-87
2022/03/22 10:13:22;;;;;;;39.42;17.70;;;14.10;32.20;;;;;;5125931;27;19946;-87
2022/03/22 10:15:47;;;;;;;;;;;14.30;31.80;;;;;;5130423;27;20075;-87
2022/03/22 10:18:13;;;;;;;42.08;17.38;;;14.30;31.60;;;;;;5128179;27;19966;-87
2022/03/22 10:20:40;;;;;;;;;;;14.70;31.30;;;;;;5122218;27;20391;-87
2022/03/22 10:23:08;;;;;;;39.53;19.90;;;15.60;30.70;;;;;;5125734;27;19952;-87
2022/03/22 10:25:39;;;;;;;46.33;20.50;;;16.90;29.20;;;;;;5129702;27;20023;-86
2022/03/22 10:28:06;;;;;;;37.55;18.75;;;18.60;27.50;;;;;;5130513;27;20027;-86
2022/03/22 10:30:34;;;;;;;37.20;18.85;;;20.30;26.10;;;;;;5133020;27;20090;-86
2022/03/22 10:33:00;;;;;;;37.50;19.67;;;21.50;24.70;;;;;;5126810;27;20015;-86
2022/03/22 10:35:34;;;;;;;37.63;20.38;;;22.80;23.90;;;;;;5128377;27;20106;-87
2022/03/22 10:38:08;;;;;;;42.38;19.88;;;23.90;23.00;;;;;;5127669;27;20053;-86
2022/03/22 10:40:46;;;;;;;44.35;23.63;;;25.20;21.90;;;;;;5132513;27;20428;-86
2022/03/22 10:43:13;;;;;;;38.38;21.75;;;26.20;20.60;;;;;;5130559;27;20106;-87
2022/03/22 10:45:50;;;;;;;40.30;22.77;;;27.10;20.70;;;;;;5127422;27;20019;-87
2022/03/22 10:48:40;;;;;;;38.83;23.02;;;28.20;19.50;;;;;;5128424;27;20023;-86
2022/03/22 10:51:06;;;;;;;40.10;23.58;;;29.10;19.00;;;;;;5128306;27;20058;-87
2022/03/22 10:53:34;;;;;;;37.75;22.45;;;29.80;18.50;;;;;;5133081;27;20023;-86
2022/03/22 10:56:02;;;;;;;43.55;23.50;;;30.50;17.80;;;;;;5128130;27;20438;-87
2022/03/22 10:58:30;;;;;;;36.13;20.77;;;31.00;17.40;;;;;;5123076;27;20027;-85
2022/03/22 11:00:59;;;;;;;33.00;20.50;;;31.50;16.80;;;;;;5126171;27;20494;-87
2022/03/22 11:03:29;;;;;;;32.88;20.83;;;32.10;16.40;;;;;;5151608;27;20047;-87
2022/03/22 11:05:57;;;;;;;41.00;22.33;;;32.50;15.80;;;;;;5128493;27;20413;-87
2022/03/22 11:08:27;;;;;;;35.83;20.90;;;32.80;15.40;;;;;;5125453;27;20096;-86
2022/03/22 11:10:54;;;;;;;38.47;21.35;;;33.00;15.10;;;;;;5127486;27;20075;-87
2022/03/22 11:13:23;;;;;;;33.00;19.02;;;33.30;15.10;;;;;;5127763;27;20090;-86
2022/03/22 11:15:50;;;;;;;31.92;18.25;;;33.80;14.70;;;;;;5124070;27;20098;-87
2022/03/22 11:18:19;;;;;;;31.58;19.27;;;34.10;14.30;;;;;;5153912;27;20026;-83
2022/03/22 11:20:52;;;;;;;36.80;20.48;;;34.20;14.00;;;;;;5132279;27;20391;-87
2022/03/22 11:23:23;;;;;;;29.75;20.10;;;34.10;13.70;;;;;;5125456;27;20015;-86
2022/03/22 11:25:49;;;;;;;34.33;20.30;;;34.00;13.90;;;;;;5126958;27;20019;-85
2022/03/22 11:42:16;;;;;;;28.45;19.35;;;36.30;13.10;;;;;;5143563;27;20063;-86
2022/03/22 11:44:42;;;;;;;29.70;18.48;;;36.80;12.70;;;;;;5142363;27;20378;-84
2022/03/22 11:47:12;;;;;;;28.35;19.65;;;37.00;12.60;;;;;;5142969;27;20027;-86
2022/03/22 11:49:52;;;;;;;31.48;20.95;;;37.30;12.20;;;;;;5121650;27;20357;-86
2022/03/22 11:52:23;;;;;;;27.77;19.33;;;37.30;12.40;;;;;;5146072;27;20076;-84
2022/03/22 11:55:00;;;;;;;30.75;18.25;;;37.50;12.30;;;;;;5123021;27;20328;-85
2022/03/22 11:57:27;;;;;;;27.08;19.67;;;38.00;12.00;;;;;;5113373;27;20106;-85
2022/03/22 11:59:54;;;;;;;28.15;18.02;;;38.30;11.80;;;;;;5129517;27;20062;-84
2022/03/22 12:02:27;;;;;;;28.13;18.48;;;38.50;11.90;;;;;;5124476;27;20026;-86
2022/03/22 12:04:57;;;;;;;30.42;18.45;;;38.80;11.60;;;;;;5124119;27;20025;-85
2022/03/22 12:07:32;;;;;;;30.42;17.77;;;39.30;11.30;;;;;;5126524;27;20011;-85
2022/03/22 12:10:11;;;;;;;23.92;17.23;;;39.60;11.40;;;;;;5142484;27;20039;-85
2022/03/22 12:12:38;;;;;;;27.08;17.20;;;40.00;11.10;;;;;;5129239;27;20038;-87
2022/03/22 12:15:07;;;;;;;22.90;16.75;;;40.30;11.20;;;;;;5127778;27;20048;-86
2022/03/22 12:17:33;;;;;;;20.27;16.15;;;40.30;11.10;;;;;;5124581;27;20088;-87
2022/03/22 12:20:00;;;;;;;21.75;16.27;;;40.40;11.00;;;;;;5125505;27;20027;-87
2022/03/22 12:22:27;;;;;;;26.17;17.10;;;40.70;10.90;;;;;;5127320;27;20034;-86
2022/03/22 12:24:53;;;;;;;28.30;17.40;;;40.80;10.70;;;;;;5125112;27;20162;-87
2022/03/22 12:27:19;;;;;;;26.73;16.92;;;40.70;10.70;;;;;;5124828;27;20122;-87
2022/03/22 12:29:45;;;;;;;28.27;16.23;;;40.60;10.40;;;;;;5130008;27;20054;-87
2022/03/22 12:32:20;;;;;;;24.98;15.95;;;40.40;10.70;;;;;;5127715;27;20027;-86
2022/03/22 12:34:46;;;;;;;35.95;16.63;;;40.40;10.60;;;;;;5128180;27;20113;-85
2022/03/22 12:37:13;;;;;;;25.10;16.73;;;40.50;10.70;;;;;;5126438;27;20038;-86
2022/03/22 12:39:41;;;;;;;24.35;15.82;;;40.40;10.60;;;;;;5125669;27;20603;-83
2022/03/22 12:42:08;;;;;;;21.55;15.07;;;40.30;10.50;;;;;;5139180;27;20042;-83
2022/03/22 12:44:34;;;;;;;28.42;16.35;;;40.40;10.40;;;;;;5123307;27;20022;-83
2022/03/22 12:47:01;;;;;;;24.02;15.27;;;40.10;10.50;;;;;;5147281;27;20024;-83
2022/03/22 12:49:27;;;;;;;22.00;14.43;;;40.00;10.40;;;;;;5132396;27;20050;-83
2022/03/22 12:51:53;;;;;;;21.48;14.00;;;40.10;10.50;;;;;;5130411;27;20031;-83
2022/03/22 12:54:19;;;;;;;20.45;15.48;;;40.10;10.50;;;;;;5124588;27;20033;-83
2022/03/22 12:56:49;;;;;;;26.15;15.02;;;40.00;10.60;;;;;;5124049;27;20030;-84
2022/03/22 12:59:22;;;;;;;20.95;14.57;;;40.10;10.40;;;;;;5126874;27;20019;-84
2022/03/22 13:01:58;;;;;;;23.65;15.00;;;40.20;10.60;;;;;;5123264;28;20023;-83
2022/03/22 13:04:29;;;;;;;21.05;14.43;;;40.40;10.50;;;;;;5118828;27;20563;-82
2022/03/22 13:07:00;;;;;;;22.65;14.45;;;40.70;10.50;;;;;;5142878;27;20047;-82
2022/03/22 13:12:14;;;;;;;23.25;14.23;;;40.80;10.20;;;;;;5142361;27;20568;-83
2022/03/22 13:17:28;;;;;;;22.88;13.52;;;40.30;10.10;;;;;;5151839;27;20049;-82
2022/03/22 13:19:54;;;;;;;17.75;13.15;;;40.10;10.10;;;;;;5142934;27;20038;-82